sensor_id;sensor_type;location;lat;lon;timestamp;P1;P2;P0
46044;PMS7003;31781;54.094;13.428;2022-10-16T00:18:44;2.25;2.25;2.00
46044;PMS7003;31781;54.094;13.428;2022-10-16T00:29:32;2.00;2.00;2.00
46044;PMS7003;31781;54.094;13.428;2022-10-16T00:34:36;2.25;2.25;2.00
46044;PMS7003;31781;54.094;13.428;2022-10-16T00:50:36;2.00;2.00;1.75
46044;PMS7003;31781;54.094;13.428;2022-10-16T00:55:39;2.25;2.25;2.00
46044;PMS7003;31781;54.094;13.428;2022-10-16T01:00:43;2.00;2.00;1.75
46044;PMS7003;31781;54.094;13.428;2022-10-16T01:05:52;2.00;2.00;2.00
46044;PMS7003;31781;54.094;13.428;2022-10-16T01:11:05;1.00;1.00;1.00
46044;PMS7003;31781;54.094;13.428;2022-10-16T01:16:20;2.00;2.00;1.50
46044;PMS7003;31781;54.094;13.428;2022-10-16T01:21:45;4.00;2.00;2.00
46044;PMS7003;31781;54.094;13.428;2022-10-16T01:27:07;4.00;2.75;2.00
46044;PMS7003;31781;54.094;13.428;2022-10-16T01:32:15;3.50;3.50;3.00
46044;PMS7003;31781;54.094;13.428;2022-10-16T01:37:29;2.50;2.50;2.00
46044;PMS7003;31781;54.094;13.428;2022-10-16T01:43:03;4.00;4.00;3.25
46044;PMS7003;31781;54.094;13.428;2022-10-16T01:48:14;4.50;3.00;2.00
46044;PMS7003;31781;54.094;13.428;2022-10-16T01:53:22;3.00;3.00;3.00
46044;PMS7003;31781;54.094;13.428;2022-10-16T01:58:49;2.75;2.75;2.00
46044;PMS7003;31781;54.094;13.428;2022-10-16T02:03:58;2.50;2.50;2.00
46044;PMS7003;31781;54.094;13.428;2022-10-16T02:09:03;4.00;3.00;3.00
46044;PMS7003;31781;54.094;13.428;2022-10-16T02:14:11;3.75;3.75;2.75
46044;PMS7003;31781;54.094;13.428;2022-10-16T02:19:35;4.00;4.00;3.00
46044;PMS7003;31781;54.094;13.428;2022-10-16T02:25:01;3.00;3.00;3.00
46044;PMS7003;31781;54.094;13.428;2022-10-16T02:30:17;3.00;3.00;2.00
46044;PMS7003;31781;54.094;13.428;2022-10-16T02:35:42;3.25;3.25;3.00
46044;PMS7003;31781;54.094;13.428;2022-10-16T02:40:48;2.50;2.50;2.00
46044;PMS7003;31781;54.094;13.428;2022-10-16T02:46:17;3.75;3.75;2.75
46044;PMS7003;31781;54.094;13.428;2022-10-16T02:51:45;4.75;3.00;2.50
46044;PMS7003;31781;54.094;13.428;2022-10-16T02:56:49;5.25;5.00;4.00
46044;PMS7003;31781;54.094;13.428;2022-10-16T03:07:34;3.50;3.50;2.50
46044;PMS7003;31781;54.094;13.428;2022-10-16T03:13:07;3.50;3.50;3.00
46044;PMS7003;31781;54.094;13.428;2022-10-16T03:18:10;4.00;4.00;3.00
46044;PMS7003;31781;54.094;13.428;2022-10-16T03:23:17;3.00;3.00;2.00
46044;PMS7003;31781;54.094;13.428;2022-10-16T03:28:25;4.00;4.00;3.00
46044;PMS7003;31781;54.094;13.428;2022-10-16T03:33:28;2.25;2.25;2.00
46044;PMS7003;31781;54.094;13.428;2022-10-16T03:38:35;3.50;3.50;2.75
46044;PMS7003;31781;54.094;13.428;2022-10-16T03:49:00;3.75;3.75;3.75
46044;PMS7003;31781;54.094;13.428;2022-10-16T03:54:09;1.00;1.00;1.00
46044;PMS7003;31781;54.094;13.428;2022-10-16T03:59:13;4.00;4.00;2.75
46044;PMS7003;31781;54.094;13.428;2022-10-16T04:04:21;7.00;5.00;4.00
46044;PMS7003;31781;54.094;13.428;2022-10-16T04:09:24;4.50;4.00;2.75
46044;PMS7003;31781;54.094;13.428;2022-10-16T04:14:48;4.25;4.25;3.75
46044;PMS7003;31781;54.094;13.428;2022-10-16T04:19:51;4.25;4.00;3.00
46044;PMS7003;31781;54.094;13.428;2022-10-16T04:25:16;10.50;10.50;8.25
46044;PMS7003;31781;54.094;13.428;2022-10-16T04:30:19;8.25;6.75;5.50
46044;PMS7003;31781;54.094;13.428;2022-10-16T04:35:23;4.00;4.00;2.25
46044;PMS7003;31781;54.094;13.428;2022-10-16T04:40:32;3.75;3.75;2.25
46044;PMS7003;31781;54.094;13.428;2022-10-16T04:45:35;2.50;2.50;2.25
46044;PMS7003;31781;54.094;13.428;2022-10-16T04:56:27;3.00;3.00;3.00
46044;PMS7003;31781;54.094;13.428;2022-10-16T05:01:30;3.75;3.75;3.25
46044;PMS7003;31781;54.094;13.428;2022-10-16T05:06:34;2.00;2.00;2.00
46044;PMS7003;31781;54.094;13.428;2022-10-16T05:11:46;2.00;2.00;1.25
46044;PMS7003;31781;54.094;13.428;2022-10-16T05:16:49;3.25;3.25;2.00
46044;PMS7003;31781;54.094;13.428;2022-10-16T05:21:53;2.75;2.75;2.00
46044;PMS7003;31781;54.094;13.428;2022-10-16T05:27:01;4.25;3.00;2.50
46044;PMS7003;31781;54.094;13.428;2022-10-16T05:32:04;4.00;4.00;3.00
46044;PMS7003;31781;54.094;13.428;2022-10-16T05:37:25;5.00;5.00;4.25
46044;PMS7003;31781;54.094;13.428;2022-10-16T05:42:28;4.00;4.00;3.25
46044;PMS7003;31781;54.094;13.428;2022-10-16T05:47:31;3.50;3.50;2.75
46044;PMS7003;31781;54.094;13.428;2022-10-16T05:53:07;5.00;4.00;2.50
46044;PMS7003;31781;54.094;13.428;2022-10-16T05:58:36;3.25;3.25;3.00
46044;PMS7003;31781;54.094;13.428;2022-10-16T06:14:30;4.00;4.00;3.25
46044;PMS7003;31781;54.094;13.428;2022-10-16T06:19:34;2.75;2.75;2.50
46044;PMS7003;31781;54.094;13.428;2022-10-16T06:24:38;3.50;3.50;3.00
46044;PMS7003;31781;54.094;13.428;2022-10-16T06:29:46;2.75;2.75;2.00
46044;PMS7003;31781;54.094;13.428;2022-10-16T06:34:50;2.00;2.00;1.50
46044;PMS7003;31781;54.094;13.428;2022-10-16T06:39:53;3.00;3.00;2.75
46044;PMS7003;31781;54.094;13.428;2022-10-16T06:45:01;3.00;3.00;2.00
46044;PMS7003;31781;54.094;13.428;2022-10-16T06:50:04;2.00;2.00;1.50
46044;PMS7003;31781;54.094;13.428;2022-10-16T06:55:08;3.00;3.00;3.00
46044;PMS7003;31781;54.094;13.428;2022-10-16T07:00:17;2.00;2.00;2.00
46044;PMS7003;31781;54.094;13.428;2022-10-16T07:05:37;1.75;1.75;1.50
46044;PMS7003;31781;54.094;13.428;2022-10-16T07:10:40;2.75;2.75;1.75
46044;PMS7003;31781;54.094;13.428;2022-10-16T07:15:43;2.00;2.00;2.00
46044;PMS7003;31781;54.094;13.428;2022-10-16T07:20:51;1.00;1.00;1.00
46044;PMS7003;31781;54.094;13.428;2022-10-16T07:25:54;2.00;2.00;2.00
46044;PMS7003;31781;54.094;13.428;2022-10-16T07:31:00;2.00;2.00;1.25
46044;PMS7003;31781;54.094;13.428;2022-10-16T07:36:09;2.00;2.00;1.00
46044;PMS7003;31781;54.094;13.428;2022-10-16T07:41:17;2.00;2.00;1.50
46044;PMS7003;31781;54.094;13.428;2022-10-16T07:46:22;1.00;1.00;0.00
46044;PMS7003;31781;54.094;13.428;2022-10-16T07:51:41;1.00;1.00;1.00
46044;PMS7003;31781;54.094;13.428;2022-10-16T07:56:45;1.00;1.00;1.00
46044;PMS7003;31781;54.094;13.428;2022-10-16T08:01:51;1.00;1.00;1.00
46044;PMS7003;31781;54.094;13.428;2022-10-16T08:07:11;2.00;2.00;1.75
46044;PMS7003;31781;54.094;13.428;2022-10-16T08:12:12;1.75;1.75;1.50
46044;PMS7003;31781;54.094;13.428;2022-10-16T08:17:15;2.00;2.00;1.25
46044;PMS7003;31781;54.094;13.428;2022-10-16T08:22:25;1.00;1.00;1.00
46044;PMS7003;31781;54.094;13.428;2022-10-16T08:27:45;3.00;1.00;1.00
46044;PMS7003;31781;54.094;13.428;2022-10-16T08:32:48;0.50;0.50;0.50
46044;PMS7003;31781;54.094;13.428;2022-10-16T08:43:18;0.75;0.75;0.50
46044;PMS7003;31781;54.094;13.428;2022-10-16T08:48:32;1.00;1.00;1.00
46044;PMS7003;31781;54.094;13.428;2022-10-16T08:53:46;3.00;3.00;1.50
46044;PMS7003;31781;54.094;13.428;2022-10-16T08:59:01;0.25;0.25;0.25
46044;PMS7003;31781;54.094;13.428;2022-10-16T09:15:11;0.00;0.00;0.00
46044;PMS7003;31781;54.094;13.428;2022-10-16T09:20:26;0.00;0.00;0.00
46044;PMS7003;31781;54.094;13.428;2022-10-16T09:25:48;3.00;3.00;2.00
46044;PMS7003;31781;54.094;13.428;2022-10-16T09:30:53;0.33;0.33;0.00
46044;PMS7003;31781;54.094;13.428;2022-10-16T09:35:57;0.33;0.33;0.00
46044;PMS7003;31781;54.094;13.428;2022-10-16T09:41:11;0.00;0.00;0.00
46044;PMS7003;31781;54.094;13.428;2022-10-16T09:51:43;0.00;0.00;0.00
46044;PMS7003;31781;54.094;13.428;2022-10-16T09:56:46;0.00;0.00;0.00
46044;PMS7003;31781;54.094;13.428;2022-10-16T10:01:49;0.00;0.00;0.00
46044;PMS7003;31781;54.094;13.428;2022-10-16T10:17:22;0.00;0.00;0.00
46044;PMS7003;31781;54.094;13.428;2022-10-16T10:22:30;0.00;0.00;0.00
46044;PMS7003;31781;54.094;13.428;2022-10-16T10:27:38;0.00;0.00;0.00
46044;PMS7003;31781;54.094;13.428;2022-10-16T10:38:47;1.00;0.00;0.00
46044;PMS7003;31781;54.094;13.428;2022-10-16T10:43:56;0.00;0.00;0.00
46044;PMS7003;31781;54.094;13.428;2022-10-16T10:49:16;0.00;0.00;0.00
46044;PMS7003;31781;54.094;13.428;2022-10-16T10:54:33;0.67;0.67;0.00
46044;PMS7003;31781;54.094;13.428;2022-10-16T11:26:23;0.00;0.00;0.00
46044;PMS7003;31781;54.094;13.428;2022-10-16T11:31:50;0.00;0.00;0.00
46044;PMS7003;31781;54.094;13.428;2022-10-16T11:36:58;0.00;0.00;0.00
46044;PMS7003;31781;54.094;13.428;2022-10-16T11:42:11;0.00;0.00;0.00
46044;PMS7003;31781;54.094;13.428;2022-10-16T11:47:33;0.00;0.00;0.00
46044;PMS7003;31781;54.094;13.428;2022-10-16T11:53:01;1.00;1.00;0.00
46044;PMS7003;31781;54.094;13.428;2022-10-16T11:58:15;0.00;0.00;0.00
46044;PMS7003;31781;54.094;13.428;2022-10-16T12:03:41;0.00;0.00;0.00
46044;PMS7003;31781;54.094;13.428;2022-10-16T12:08:51;0.00;0.00;0.00
46044;PMS7003;31781;54.094;13.428;2022-10-16T12:14:03;0.00;0.00;0.00
46044;PMS7003;31781;54.094;13.428;2022-10-16T12:19:26;0.00;0.00;0.00
46044;PMS7003;31781;54.094;13.428;2022-10-16T12:24:33;0.00;0.00;0.00
46044;PMS7003;31781;54.094;13.428;2022-10-16T12:29:39;0.00;0.00;0.00
46044;PMS7003;31781;54.094;13.428;2022-10-16T12:34:57;0.00;0.00;0.00
46044;PMS7003;31781;54.094;13.428;2022-10-16T12:40:29;0.00;0.00;0.00
46044;PMS7003;31781;54.094;13.428;2022-10-16T12:45:58;0.00;0.00;0.00
46044;PMS7003;31781;54.094;13.428;2022-10-16T12:56:13;0.00;0.00;0.00
46044;PMS7003;31781;54.094;13.428;2022-10-16T13:01:36;0.00;0.00;0.00
46044;PMS7003;31781;54.094;13.428;2022-10-16T13:18:35;0.00;0.00;0.00
46044;PMS7003;31781;54.094;13.428;2022-10-16T13:24:03;0.00;0.00;0.00
46044;PMS7003;31781;54.094;13.428;2022-10-16T13:29:17;0.00;0.00;0.00
46044;PMS7003;31781;54.094;13.428;2022-10-16T13:39:42;0.00;0.00;0.00
46044;PMS7003;31781;54.094;13.428;2022-10-16T13:44:48;4.33;3.33;2.67
46044;PMS7003;31781;54.094;13.428;2022-10-16T13:49:59;0.00;0.00;0.00
46044;PMS7003;31781;54.094;13.428;2022-10-16T13:55:10;0.00;0.00;0.00
46044;PMS7003;31781;54.094;13.428;2022-10-16T14:00:18;0.00;0.00;0.00
46044;PMS7003;31781;54.094;13.428;2022-10-16T14:05:22;0.00;0.00;0.00
46044;PMS7003;31781;54.094;13.428;2022-10-16T14:10:33;0.00;0.00;0.00
46044;PMS7003;31781;54.094;13.428;2022-10-16T14:15:37;0.00;0.00;0.00
46044;PMS7003;31781;54.094;13.428;2022-10-16T14:20:40;0.00;0.00;0.00
46044;PMS7003;31781;54.094;13.428;2022-10-16T14:25:49;0.00;0.00;0.00
46044;PMS7003;31781;54.094;13.428;2022-10-16T14:30:54;0.00;0.00;0.00
46044;PMS7003;31781;54.094;13.428;2022-10-16T14:35:59;0.00;0.00;0.00
46044;PMS7003;31781;54.094;13.428;2022-10-16T14:41:15;0.00;0.00;0.00
46044;PMS7003;31781;54.094;13.428;2022-10-16T14:46:28;5.00;5.00;4.00
46044;PMS7003;31781;54.094;13.428;2022-10-16T14:51:34;1.67;0.00;0.00
46044;PMS7003;31781;54.094;13.428;2022-10-16T14:56:47;0.00;0.00;0.00
46044;PMS7003;31781;54.094;13.428;2022-10-16T15:08:31;0.00;0.00;0.00
46044;PMS7003;31781;54.094;13.428;2022-10-16T15:13:34;0.00;0.00;0.00
46044;PMS7003;31781;54.094;13.428;2022-10-16T15:18:38;0.33;0.33;0.00
46044;PMS7003;31781;54.094;13.428;2022-10-16T15:23:48;1.00;0.00;0.00
46044;PMS7003;31781;54.094;13.428;2022-10-16T15:34:36;0.00;0.00;0.00
46044;PMS7003;31781;54.094;13.428;2022-10-16T15:39:39;1.00;1.00;0.00
46044;PMS7003;31781;54.094;13.428;2022-10-16T15:50:03;1.00;1.00;1.00
46044;PMS7003;31781;54.094;13.428;2022-10-16T15:55:23;0.00;0.00;0.00
46044;PMS7003;31781;54.094;13.428;2022-10-16T16:00:43;0.00;0.00;0.00
46044;PMS7003;31781;54.094;13.428;2022-10-16T16:05:47;1.67;0.00;0.00
46044;PMS7003;31781;54.094;13.428;2022-10-16T16:10:57;0.00;0.00;0.00
46044;PMS7003;31781;54.094;13.428;2022-10-16T16:16:07;0.00;0.00;0.00
46044;PMS7003;31781;54.094;13.428;2022-10-16T16:21:11;0.00;0.00;0.00
46044;PMS7003;31781;54.094;13.428;2022-10-16T16:31:43;0.00;0.00;0.00
46044;PMS7003;31781;54.094;13.428;2022-10-16T16:41:56;0.00;0.00;0.00
46044;PMS7003;31781;54.094;13.428;2022-10-16T16:47:21;0.50;0.50;0.00
46044;PMS7003;31781;54.094;13.428;2022-10-16T16:58:37;1.00;1.00;0.50
46044;PMS7003;31781;54.094;13.428;2022-10-16T17:29:27;0.00;0.00;0.00
46044;PMS7003;31781;54.094;13.428;2022-10-16T18:06:38;0.75;0.75;0.75
46044;PMS7003;31781;54.094;13.428;2022-10-16T18:37:27;0.50;0.50;0.00
46044;PMS7003;31781;54.094;13.428;2022-10-16T18:53:19;2.00;2.00;1.00
46044;PMS7003;31781;54.094;13.428;2022-10-16T18:58:28;2.00;2.00;1.50
46044;PMS7003;31781;54.094;13.428;2022-10-16T20:52:16;4.25;4.25;4.25
46044;PMS7003;31781;54.094;13.428;2022-10-16T22:15:21;0.00;0.00;0.00
46044;PMS7003;31781;54.094;13.428;2022-10-16T23:27:55;5.75;2.00;2.00
